Time;durP1;ratioP1;P1;durP2;ratioP2;P2;SDS_P1;SDS_P2;PMS_P1;PMS_P2;Temp;Humidity;BMP_temperature;BMP_pressure;BME280_temperature;BME280_humidity;BME280_pressure;Samples;Min_cycle;Max_cycle;Signal;HPM_P1;HPM_P2
2021/05/07 00:00:06;;;;;;;1.47;1.47;;;;;;;6.41;100.00;96974.78;4980758;28;20225;-71
2021/05/07 00:02:33;;;;;;;1.50;1.50;;;;;;;6.31;100.00;96981.00;4984035;28;20756;-71
2021/05/07 00:05:00;;;;;;;1.90;1.90;;;;;;;6.32;100.00;96979.19;4982597;28;20217;-71
2021/05/07 00:07:29;;;;;;;2.07;1.97;;;;;;;6.23;100.00;96979.19;4984107;28;20209;-71
2021/05/07 00:09:57;;;;;;;2.07;2.00;;;;;;;6.26;100.00;96974.56;4982908;28;20509;-69
2021/05/07 00:12:25;;;;;;;2.00;1.90;;;;;;;6.23;100.00;96973.09;4983749;28;20484;-70
2021/05/07 00:14:52;;;;;;;3.23;2.30;;;;;;;6.10;100.00;96980.63;4983606;28;20275;-72
2021/05/07 00:17:19;;;;;;;2.30;2.20;;;;;;;6.10;100.00;96978.84;4982331;28;20210;-71
2021/05/07 00:19:47;;;;;;;2.37;2.27;;;;;;;6.04;100.00;96975.03;4983516;28;20319;-71
2021/05/07 00:22:14;;;;;;;2.37;2.27;;;;;;;6.07;100.00;96982.59;4982413;28;20245;-70
2021/05/07 00:24:42;;;;;;;2.40;2.30;;;;;;;6.07;100.00;96985.22;4983846;28;20202;-71
2021/05/07 00:27:09;;;;;;;2.30;2.20;;;;;;;6.15;100.00;96991.47;4982123;28;20206;-70
2021/05/07 00:29:37;;;;;;;2.63;2.53;;;;;;;6.10;100.00;96986.72;4982286;28;20233;-71
2021/05/07 00:32:05;;;;;;;2.53;2.43;;;;;;;6.11;100.00;96977.84;4981169;28;20297;-72
2021/05/07 00:34:32;;;;;;;2.83;2.73;;;;;;;6.12;100.00;96997.06;4982550;28;20799;-71
2021/05/07 00:36:59;;;;;;;2.60;2.40;;;;;;;6.05;100.00;96989.81;4980889;28;20537;-70
2021/05/07 00:39:27;;;;;;;2.80;2.63;;;;;;;6.04;100.00;97001.31;4982147;28;20253;-71
2021/05/07 00:41:54;;;;;;;2.60;2.50;;;;;;;6.01;100.00;97006.91;4983024;28;20293;-70
2021/05/07 00:44:22;;;;;;;3.00;2.87;;;;;;;5.90;100.00;97007.97;4981441;28;20761;-70
2021/05/07 00:46:50;;;;;;;3.10;3.00;;;;;;;5.92;100.00;97015.72;4982729;28;20197;-72
2021/05/07 00:49:17;;;;;;;2.77;2.57;;;;;;;5.90;100.00;97009.81;4982887;28;20210;-71
2021/05/07 00:51:44;;;;;;;3.10;3.00;;;;;;;5.89;100.00;97016.03;4983100;28;20285;-71
2021/05/07 00:54:11;;;;;;;2.73;2.53;;;;;;;5.88;100.00;97017.84;4982870;28;20938;-72
2021/05/07 00:56:39;;;;;;;2.63;2.53;;;;;;;5.88;100.00;97017.84;4982367;28;20337;-71
2021/05/07 00:59:06;;;;;;;2.83;2.73;;;;;;;5.98;100.00;97020.34;4981461;28;20226;-72
2021/05/07 01:01:33;;;;;;;3.10;2.97;;;;;;;5.97;100.00;97020.50;4980244;28;20237;-71
2021/05/07 01:04:02;;;;;;;2.90;2.80;;;;;;;6.03;100.00;97012.84;4982800;28;20325;-71
2021/05/07 01:06:29;;;;;;;2.67;2.50;;;;;;;5.99;100.00;97016.72;4982377;28;20205;-70
2021/05/07 01:08:56;;;;;;;2.47;2.37;;;;;;;5.98;100.00;97015.09;4982753;28;20209;-71
2021/05/07 01:11:23;;;;;;;2.60;2.50;;;;;;;5.95;100.00;97010.16;4982983;28;20603;-72
2021/05/07 01:13:50;;;;;;;2.33;2.23;;;;;;;5.96;100.00;97019.69;4980324;28;20584;-71
2021/05/07 01:16:17;;;;;;;2.10;2.00;;;;;;;5.97;100.00;97015.22;4982882;28;20562;-72
2021/05/07 01:18:44;;;;;;;2.20;2.10;;;;;;;5.99;100.00;97013.25;4982581;28;20229;-70
2021/05/07 01:21:13;;;;;;;2.60;2.50;;;;;;;6.00;100.00;97025.44;4983413;28;20226;-70
2021/05/07 01:23:40;;;;;;;2.30;2.20;;;;;;;6.02;100.00;97015.59;4982104;28;20206;-70
2021/05/07 01:26:07;;;;;;;2.10;2.00;;;;;;;6.08;100.00;97030.78;4983140;28;20209;-71
2021/05/07 01:28:35;;;;;;;2.30;2.20;;;;;;;5.97;100.00;97018.69;4982585;28;20209;-71
2021/05/07 01:31:03;;;;;;;1.90;1.80;;;;;;;5.98;100.00;97037.91;4982514;28;20341;-71
2021/05/07 01:33:30;;;;;;;2.20;2.10;;;;;;;6.00;99.17;97051.72;4987141;28;20721;-72
2021/05/07 01:35:57;;;;;;;2.03;1.93;;;;;;;5.98;99.17;97058.97;4986659;28;20211;-70
2021/05/07 01:38:25;;;;;;;2.33;2.23;;;;;;;5.99;98.68;97060.59;4986732;28;20716;-71
2021/05/07 01:40:53;;;;;;;2.57;2.47;;;;;;;6.01;97.25;97071.81;4985886;28;20311;-71
2021/05/07 01:43:20;;;;;;;3.00;2.40;;;;;;;5.96;97.36;97064.41;4985644;28;20760;-71
2021/05/07 01:45:48;;;;;;;2.30;2.20;;;;;;;5.98;97.26;97059.78;4986497;28;20361;-70
2021/05/07 01:48:16;;;;;;;2.40;2.30;;;;;;;5.94;98.96;97061.91;4986495;28;20230;-70
2021/05/07 01:50:44;;;;;;;2.43;2.33;;;;;;;5.95;97.13;97070.63;4984139;28;20236;-72
2021/05/07 01:53:12;;;;;;;2.30;2.20;;;;;;;5.86;97.41;97059.25;4986095;28;20252;-70
2021/05/07 01:55:41;;;;;;;2.70;2.50;;;;;;;5.79;97.84;97066.94;4986215;28;20292;-70
2021/05/07 01:58:10;;;;;;;2.30;2.20;;;;;;;5.87;97.65;97068.78;4985480;28;20633;-70
2021/05/07 02:00:39;;;;;;;3.00;2.90;;;;;;;5.87;94.83;97078.47;4985272;28;20795;-71
2021/05/07 02:03:07;;;;;;;2.40;2.30;;;;;;;5.90;94.19;97078.19;4984658;28;20206;-71
2021/05/07 02:05:34;;;;;;;2.83;2.73;;;;;;;5.90;95.40;97078.97;4985900;28;20213;-71
2021/05/07 02:08:03;;;;;;;2.53;2.43;;;;;;;5.93;95.17;97072.59;4986155;28;20205;-72
2021/05/07 02:10:31;;;;;;;3.40;3.20;;;;;;;5.90;94.27;97088.69;4985022;28;20617;-71
2021/05/07 02:13:00;;;;;;;3.00;2.87;;;;;;;5.88;95.40;97088.03;4986697;28;20216;-71
2021/05/07 02:15:28;;;;;;;3.37;3.10;;;;;;;5.85;96.25;97085.69;4986069;28;20933;-69
2021/05/07 02:17:56;;;;;;;3.10;3.00;;;;;;;5.75;97.38;97080.56;4986721;28;20332;-70
2021/05/07 02:20:25;;;;;;;3.37;3.17;;;;;;;5.75;97.39;97088.44;4984601;28;20218;-70
2021/05/07 02:22:52;;;;;;;3.60;3.30;;;;;;;5.70;98.17;97090.72;4984604;28;20628;-71
2021/05/07 02:25:21;;;;;;;4.00;3.80;;;;;;;5.69;98.15;97082.00;4983535;28;20212;-71
2021/05/07 02:27:48;;;;;;;3.90;3.70;;;;;;;5.70;98.62;97088.09;4985026;28;20682;-69
2021/05/07 02:30:18;;;;;;;3.60;3.40;;;;;;;5.64;99.49;97097.41;4985113;28;20229;-69
2021/05/07 02:32:45;;;;;;;4.10;3.90;;;;;;;5.60;100.00;97096.88;4984486;28;20202;-70
2021/05/07 02:35:13;;;;;;;4.13;3.87;;;;;;;5.63;100.00;97103.66;4985881;28;20301;-70
2021/05/07 02:37:41;;;;;;;4.53;4.13;;;;;;;5.55;100.00;97106.22;4985264;28;20209;-71
2021/05/07 02:40:09;;;;;;;4.10;3.90;;;;;;;5.51;100.00;97110.97;4984826;28;20240;-71
2021/05/07 02:42:36;;;;;;;4.77;4.47;;;;;;;5.48;100.00;97104.19;4983892;28;20328;-70
2021/05/07 02:45:05;;;;;;;5.43;4.93;;;;;;;5.43;100.00;97101.19;4983724;28;20634;-70
2021/05/07 02:47:33;;;;;;;4.53;4.23;;;;;;;5.46;100.00;97102.72;4984318;28;20211;-70
2021/05/07 02:50:01;;;;;;;4.83;4.53;;;;;;;5.35;100.00;97103.78;4982924;28;20673;-71
2021/05/07 02:52:28;;;;;;;4.67;4.37;;;;;;;5.45;100.00;97116.81;4983921;28;20481;-72
2021/05/07 02:54:55;;;;;;;4.93;4.63;;;;;;;5.46;100.00;97111.41;4981990;28;20202;-69
2021/05/07 02:57:22;;;;;;;4.77;4.47;;;;;;;5.44;100.00;97121.25;4984441;28;20292;-71
2021/05/07 02:59:49;;;;;;;4.63;4.33;;;;;;;5.56;100.00;97116.56;4984496;28;20320;-70
2021/05/07 03:02:16;;;;;;;5.17;4.87;;;;;;;5.44;100.00;97113.38;4984453;28;20220;-68
2021/05/07 03:04:45;;;;;;;5.00;4.70;;;;;;;5.39;100.00;97120.88;4985216;28;20229;-70
2021/05/07 03:07:12;;;;;;;4.67;4.37;;;;;;;5.35;100.00;97124.78;4982867;28;20216;-69
2021/05/07 03:09:40;;;;;;;5.73;5.33;;;;;;;5.46;100.00;97110.59;4985030;28;20225;-70
2021/05/07 03:12:07;;;;;;;4.70;4.40;;;;;;;5.31;100.00;97121.66;4984895;28;20316;-70
2021/05/07 03:14:34;;;;;;;6.03;5.63;;;;;;;5.45;100.00;97128.16;4983969;28;20221;-71
2021/05/07 03:17:02;;;;;;;5.07;4.67;;;;;;;5.32;100.00;97133.81;4983850;28;20210;-71
2021/05/07 03:19:29;;;;;;;5.30;5.00;;;;;;;5.34;100.00;97136.28;4981471;28;20256;-71
2021/05/07 03:21:57;;;;;;;5.53;5.10;;;;;;;5.46;100.00;97129.00;4983228;28;20209;-71
2021/05/07 03:24:24;;;;;;;5.57;5.20;;;;;;;5.30;100.00;97130.53;4982184;28;20246;-72
2021/05/07 03:26:51;;;;;;;5.50;5.10;;;;;;;5.24;100.00;97133.72;4979214;28;20216;-68
2021/05/07 03:29:18;;;;;;;5.97;5.57;;;;;;;5.18;100.00;97127.31;4984373;28;20214;-70
2021/05/07 03:31:45;;;;;;;5.30;5.00;;;;;;;5.19;100.00;97128.13;4984232;28;20398;-70
2021/05/07 03:34:14;;;;;;;5.57;5.17;;;;;;;5.13;100.00;97139.22;4982095;28;20213;-68
2021/05/07 03:36:41;;;;;;;5.53;5.13;;;;;;;5.10;100.00;97144.78;4983516;28;20225;-70
2021/05/07 03:39:10;;;;;;;6.10;5.67;;;;;;;5.15;100.00;97140.75;4982855;28;20784;-71
2021/05/07 03:41:37;;;;;;;5.57;5.27;;;;;;;5.14;100.00;97144.34;4984527;28;20561;-71
2021/05/07 03:44:06;;;;;;;6.17;5.77;;;;;;;5.11;100.00;97146.44;4981634;28;20292;-70
2021/05/07 03:46:33;;;;;;;6.60;6.10;;;;;;;5.07;100.00;97146.75;4982543;28;20205;-71
2021/05/07 03:49:01;;;;;;;5.57;5.20;;;;;;;5.20;100.00;97148.16;4982104;28;20563;-69
2021/05/07 03:51:28;;;;;;;6.63;6.07;;;;;;;5.13;100.00;97163.72;4980592;28;20462;-70
2021/05/07 03:53:56;;;;;;;5.67;5.27;;;;;;;5.07;100.00;97166.91;4982708;28;20198;-70
2021/05/07 03:56:25;;;;;;;6.77;6.17;;;;;;;5.05;100.00;97167.06;4978666;28;20252;-70
2021/05/07 03:58:52;;;;;;;6.60;6.10;;;;;;;5.11;100.00;97162.19;4981354;28;20345;-71
2021/05/07 04:01:21;;;;;;;5.87;5.47;;;;;;;5.09;100.00;97178.09;4982658;28;20229;-70
2021/05/07 04:03:49;;;;;;;6.13;5.73;;;;;;;5.11;100.00;97172.69;4983985;28;20213;-71
2021/05/07 04:06:18;;;;;;;6.10;5.70;;;;;;;5.05;100.00;97177.56;4983717;28;20300;-72
2021/05/07 04:08:52;;;;;;;5.47;5.17;;;;;;;5.08;100.00;97171.19;4983741;28;20498;-70
2021/05/07 04:11:24;;;;;;;6.40;5.93;;;;;;;5.21;100.00;97173.44;4979424;28;20316;-70
2021/05/07 04:13:52;;;;;;;5.47;5.13;;;;;;;4.99;100.00;97183.44;4978799;28;20320;-69
2021/05/07 04:16:19;;;;;;;6.13;5.73;;;;;;;5.01;100.00;97189.34;4981932;28;20205;-70
2021/05/07 04:18:46;;;;;;;6.07;5.67;;;;;;;5.01;100.00;97194.59;4981892;28;20222;-69
2021/05/07 04:21:13;;;;;;;6.30;5.90;;;;;;;4.97;100.00;97195.03;4981986;28;20324;-68
2021/05/07 04:23:40;;;;;;;5.77;5.30;;;;;;;4.96;100.00;97206.53;4981406;28;20206;-71
2021/05/07 04:26:07;;;;;;;5.97;5.47;;;;;;;4.97;100.00;97197.66;4982487;28;20207;-70
2021/05/07 04:28:35;;;;;;;6.00;5.60;;;;;;;4.95;100.00;97205.72;4982876;28;20241;-71
2021/05/07 04:31:07;;;;;;;5.50;5.10;;;;;;;5.08;100.00;97205.31;4980311;28;20668;-70
2021/05/07 04:33:34;;;;;;;6.03;5.63;;;;;;;5.12;100.00;97201.44;4980672;28;20474;-69
2021/05/07 04:36:01;;;;;;;6.27;5.77;;;;;;;5.11;100.00;97209.47;4981593;28;20293;-71
2021/05/07 04:38:28;;;;;;;6.10;5.60;;;;;;;5.20;100.00;97211.19;4980089;28;20317;-71
2021/05/07 04:40:56;;;;;;;5.77;5.37;;;;;;;5.21;100.00;97216.31;4978560;28;20277;-70
2021/05/07 04:43:23;;;;;;;6.67;6.13;;;;;;;5.21;100.00;97218.94;4982921;28;20290;-70
2021/05/07 04:45:51;;;;;;;6.70;6.20;;;;;;;5.14;100.00;97228.41;4980898;28;20212;-71
2021/05/07 04:48:19;;;;;;;7.23;6.03;;;;;;;4.97;100.00;97226.56;4979572;28;20640;-72
2021/05/07 04:50:46;;;;;;;7.50;6.83;;;;;;;4.96;100.00;97224.91;4978694;28;20253;-71
2021/05/07 04:53:13;;;;;;;7.30;6.63;;;;;;;4.89;100.00;97233.38;4982441;28;20209;-69
2021/05/07 04:55:41;;;;;;;6.83;6.33;;;;;;;4.92;100.00;97224.34;4983258;28;20205;-71
2021/05/07 04:58:10;;;;;;;8.03;7.40;;;;;;;4.92;100.00;97238.31;4979487;28;20724;-70
2021/05/07 05:00:37;;;;;;;7.30;6.60;;;;;;;4.86;100.00;97246.78;4981072;28;20677;-74
2021/05/07 05:03:05;;;;;;;6.63;6.13;;;;;;;4.78;100.00;97249.31;4980977;28;20288;-71
2021/05/07 05:05:33;;;;;;;7.07;6.57;;;;;;;4.79;100.00;97253.59;4982816;28;20213;-72
2021/05/07 05:08:00;;;;;;;7.17;6.57;;;;;;;4.78;100.00;97250.13;4982273;28;20417;-73
2021/05/07 05:10:28;;;;;;;7.43;6.93;;;;;;;4.86;100.00;97254.66;4982253;28;20236;-71
2021/05/07 05:12:55;;;;;;;7.80;7.13;;;;;;;4.77;100.00;97261.59;4983331;28;20283;-71
2021/05/07 05:15:23;;;;;;;7.83;7.23;;;;;;;4.71;100.00;97258.72;4982988;28;20198;-69
2021/05/07 05:17:50;;;;;;;7.43;6.73;;;;;;;4.81;100.00;97263.94;4979112;28;20878;-67
2021/05/07 05:20:18;;;;;;;7.30;6.70;;;;;;;4.75;100.00;97270.63;4981940;28;20473;-72
2021/05/07 05:22:46;;;;;;;7.87;7.17;;;;;;;4.83;100.00;97264.63;4981118;28;20324;-72
2021/05/07 05:25:13;;;;;;;7.47;6.87;;;;;;;4.81;100.00;97271.81;4981918;28;20202;-70
2021/05/07 05:27:40;;;;;;;8.67;7.97;;;;;;;4.84;100.00;97276.78;4982570;28;20201;-70
2021/05/07 05:30:09;;;;;;;8.27;7.57;;;;;;;4.99;100.00;97275.34;4982222;28;20225;-73
2021/05/07 05:32:36;;;;;;;8.23;7.63;;;;;;;5.03;100.00;97270.59;4982899;28;20204;-71
2021/05/07 05:35:04;;;;;;;8.30;7.60;;;;;;;4.99;100.00;97277.97;4983163;28;20226;-72
2021/05/07 05:37:32;;;;;;;8.43;7.73;;;;;;;4.96;100.00;97277.41;4982372;28;20296;-73
2021/05/07 05:40:00;;;;;;;7.60;7.00;;;;;;;4.97;100.00;97284.31;4982477;28;20352;-71
2021/05/07 05:42:30;;;;;;;7.63;6.93;;;;;;;5.04;100.00;97288.00;4977347;28;20497;-71
2021/05/07 05:44:57;;;;;;;7.13;6.47;;;;;;;5.12;100.00;97293.38;4980952;28;20256;-70
2021/05/07 05:47:24;;;;;;;6.67;6.17;;;;;;;5.22;100.00;97288.06;4982730;28;20300;-71
2021/05/07 05:49:56;;;;;;;7.23;6.63;;;;;;;5.27;100.00;97288.44;4980880;28;20237;-72
2021/05/07 05:52:23;;;;;;;7.47;6.77;;;;;;;5.27;100.00;97298.13;4982348;28;20209;-72
2021/05/07 05:54:51;;;;;;;7.20;6.43;;;;;;;5.34;100.00;97305.28;4981254;28;20304;-73
2021/05/07 05:57:20;;;;;;;7.20;6.60;;;;;;;5.38;100.00;97303.16;4981308;28;20570;-69
2021/05/07 05:59:49;;;;;;;7.47;6.87;;;;;;;5.43;100.00;97302.72;4981382;28;20249;-72
2021/05/07 06:02:16;;;;;;;7.97;7.37;;;;;;;5.33;100.00;97308.03;4982137;28;20724;-72
2021/05/07 06:04:44;;;;;;;7.10;6.60;;;;;;;5.29;100.00;97304.06;4982649;28;20220;-72
2021/05/07 06:07:12;;;;;;;7.87;7.17;;;;;;;5.34;100.00;97301.81;4982185;28;20267;-70
2021/05/07 06:09:39;;;;;;;6.70;6.20;;;;;;;5.25;100.00;97327.16;4980650;28;20241;-71
2021/05/07 06:12:07;;;;;;;6.50;6.00;;;;;;;5.36;100.00;97319.09;4979286;28;20230;-71
2021/05/07 06:14:36;;;;;;;5.97;5.50;;;;;;;5.30;100.00;97310.97;4983039;28;20313;-72
2021/05/07 06:17:08;;;;;;;6.00;5.60;;;;;;;5.52;100.00;97317.59;4981153;28;20220;-72
2021/05/07 06:19:36;;;;;;;7.70;5.90;;;;;;;5.47;100.00;97320.66;4982741;28;20292;-71
2021/05/07 06:22:04;;;;;;;6.60;6.10;;;;;;;5.60;100.00;97328.19;4983651;28;20606;-71
2021/05/07 06:24:33;;;;;;;6.00;5.60;;;;;;;5.43;100.00;97319.31;4984185;28;20206;-70
2021/05/07 06:27:00;;;;;;;6.23;5.73;;;;;;;5.42;100.00;97322.91;4984890;28;20264;-70
2021/05/07 06:29:28;;;;;;;5.70;5.30;;;;;;;5.39;100.00;97327.66;4979527;28;20304;-71
2021/05/07 06:31:56;;;;;;;5.83;5.43;;;;;;;5.39;100.00;97323.22;4983587;28;20291;-72
2021/05/07 06:34:24;;;;;;;14.47;13.10;;;;;;;5.33;100.00;97326.44;4980360;28;20221;-72
2021/05/07 06:36:51;;;;;;;17.07;15.70;;;;;;;5.40;100.00;97324.06;4984363;28;20311;-70
2021/05/07 06:39:18;;;;;;;7.33;6.73;;;;;;;5.51;100.00;97329.09;4979897;28;20232;-69
2021/05/07 06:41:45;;;;;;;6.47;6.00;;;;;;;5.45;100.00;97325.25;4981016;28;20700;-70
2021/05/07 06:44:12;;;;;;;6.27;5.73;;;;;;;5.53;100.00;97326.31;4984741;28;20212;-71
2021/05/07 06:46:40;;;;;;;8.23;7.53;;;;;;;5.41;100.00;97329.16;4984002;28;20811;-71
2021/05/07 06:49:14;;;;;;;12.47;11.37;;;;;;;5.55;100.00;97333.06;4984291;28;20678;-69
2021/05/07 06:51:41;;;;;;;61.43;40.77;;;;;;;5.44;100.00;97326.22;4979639;28;20209;-71
2021/05/07 06:54:09;;;;;;;43.63;27.03;;;;;;;5.55;100.00;97334.91;4982588;28;20413;-70
2021/05/07 06:56:36;;;;;;;18.90;16.87;;;;;;;5.46;100.00;97336.59;4979766;28;20310;-71
2021/05/07 06:59:06;;;;;;;7.90;7.27;;;;;;;5.76;100.00;97337.25;4984077;28;20332;-73
2021/05/07 07:01:33;;;;;;;6.43;5.93;;;;;;;5.80;100.00;97354.38;4983588;28;21050;-72
2021/05/07 07:04:01;;;;;;;10.07;9.07;;;;;;;5.68;100.00;97348.50;4984566;28;20682;-72
2021/05/07 07:06:34;;;;;;;13.63;11.13;;;;;;;5.65;97.44;97359.31;4983936;28;20484;-68
2021/05/07 07:09:01;;;;;;;7.70;7.10;;;;;;;5.50;98.48;97353.72;4984077;28;20713;-68
2021/05/07 07:11:44;;;;;;;6.47;6.00;;;;;;;5.66;97.70;97355.69;4984236;28;20260;-71
2021/05/07 07:14:12;;;;;;;15.30;13.60;;;;;;;5.86;97.84;97359.03;4985047;28;20221;-71
2021/05/07 07:16:39;;;;;;;42.57;29.10;;;;;;;5.83;98.08;97361.09;4981822;28;20234;-71
2021/05/07 07:19:07;;;;;;;10.80;9.70;;;;;;;6.02;96.34;97365.44;4983160;28;20229;-71
2021/05/07 07:21:55;;;;;;;16.90;15.10;;;;;;;6.06;94.55;97362.34;4977753;28;20206;-68
2021/05/07 07:24:23;;;;;;;13.87;12.47;;;;;;;6.15;95.02;97372.94;4981605;28;20206;-71
2021/05/07 07:26:50;;;;;;;6.03;5.63;;;;;;;6.22;91.06;97374.00;4980308;28;20686;-73
2021/05/07 07:29:17;;;;;;;7.53;6.93;;;;;;;6.39;92.89;97371.50;4982369;28;20252;-69
2021/05/07 07:31:44;;;;;;;6.83;6.33;;;;;;;6.40;90.75;97370.53;4984699;28;20580;-70
2021/05/07 07:34:11;;;;;;;7.30;6.70;;;;;;;6.55;90.34;97371.63;4980552;28;20210;-69
2021/05/07 07:36:38;;;;;;;7.90;7.30;;;;;;;6.36;89.19;97375.25;4983064;28;20359;-69
2021/05/07 07:39:07;;;;;;;7.77;7.17;;;;;;;6.34;89.56;97369.31;4980971;28;20324;-71
2021/05/07 07:41:34;;;;;;;6.17;5.67;;;;;;;6.44;88.98;97366.59;4980553;28;20616;-73
2021/05/07 07:44:01;;;;;;;6.30;5.90;;;;;;;6.41;90.06;97380.06;4979858;28;20300;-69
2021/05/07 07:46:30;;;;;;;6.10;5.57;;;;;;;6.53;87.47;97380.66;4980466;28;20197;-71
2021/05/07 07:48:58;;;;;;;6.00;5.60;;;;;;;6.47;88.48;97390.84;4981490;28;20304;-73
2021/05/07 07:51:29;;;;;;;7.10;5.90;;;;;;;6.86;85.99;97386.97;4982063;28;20252;-70
2021/05/07 07:53:56;;;;;;;5.50;5.20;;;;;;;6.75;84.82;97388.03;4981237;28;20205;-70
2021/05/07 07:56:24;;;;;;;5.67;5.27;;;;;;;6.80;85.77;97393.66;4976109;28;20290;-70
2021/05/07 07:58:52;;;;;;;5.13;4.83;;;;;;;6.72;81.90;97391.00;4981646;28;20304;-69
2021/05/07 08:01:19;;;;;;;5.53;5.13;;;;;;;6.76;84.13;97391.50;4981925;28;20446;-69
2021/05/07 08:03:46;;;;;;;5.50;5.10;;;;;;;6.50;84.33;97402.84;4983900;28;20206;-68
2021/05/07 08:06:13;;;;;;;4.73;4.43;;;;;;;6.80;82.77;97408.66;4984065;28;20205;-68
2021/05/07 08:08:40;;;;;;;5.63;5.20;;;;;;;6.78;81.17;97408.00;4983508;28;20209;-68
2021/05/07 08:11:07;;;;;;;5.50;5.10;;;;;;;6.63;79.84;97412.97;4980426;28;20312;-70
2021/05/07 08:13:36;;;;;;;5.47;5.07;;;;;;;6.36;81.14;97425.25;4982987;28;20660;-71
2021/05/07 08:16:04;;;;;;;6.50;6.00;;;;;;;6.48;80.75;97418.81;4979508;28;20293;-71
2021/05/07 08:18:31;;;;;;;5.73;5.33;;;;;;;6.80;79.33;97419.19;4983104;28;20217;-71
2021/05/07 08:20:58;;;;;;;6.03;5.53;;;;;;;7.22;78.44;97423.72;4982730;28;20231;-70
2021/05/07 08:23:25;;;;;;;8.73;7.93;;;;;;;7.43;76.56;97432.22;4983649;28;20229;-72
2021/05/07 08:25:52;;;;;;;6.23;5.63;;;;;;;7.74;76.44;97429.06;4982905;28;20206;-69
2021/05/07 08:28:20;;;;;;;5.67;5.27;;;;;;;7.52;73.42;97426.84;4981102;28;20214;-70
2021/05/07 08:30:48;;;;;;;5.70;5.30;;;;;;;7.29;74.85;97439.75;4982474;28;20660;-69
2021/05/07 08:33:15;;;;;;;6.33;5.83;;;;;;;7.15;75.83;97442.94;4982181;28;20211;-68
2021/05/07 08:35:42;;;;;;;6.87;6.30;;;;;;;7.61;74.42;97443.53;4982425;28;20213;-71
2021/05/07 08:38:11;;;;;;;6.27;5.77;;;;;;;7.74;72.28;97444.88;4980848;28;20213;-71
2021/05/07 08:40:38;;;;;;;9.33;5.20;;;;;;;7.62;72.22;97457.53;4980110;28;20257;-69
2021/05/07 08:43:10;;;;;;;10.77;8.37;;;;;;;7.48;72.24;97459.78;4980478;28;20236;-74
2021/05/07 08:45:38;;;;;;;5.87;5.40;;;;;;;7.44;71.26;97468.16;4981850;28;20320;-71
2021/05/07 08:48:11;;;;;;;5.53;5.13;;;;;;;7.44;71.48;97474.25;4981004;28;20217;-70
2021/05/07 08:50:47;;;;;;;5.63;5.23;;;;;;;7.31;70.71;97487.03;4982054;28;20228;-71
2021/05/07 08:53:16;;;;;;;6.00;5.60;;;;;;;7.16;69.73;97482.34;4982524;28;20205;-70
2021/05/07 08:55:43;;;;;;;5.90;5.37;;;;;;;7.23;70.10;97485.19;4982405;28;20214;-72
2021/05/07 08:58:10;;;;;;;5.83;5.27;;;;;;;7.36;69.20;97497.94;4981754;28;20305;-70
2021/05/07 09:00:37;;;;;;;5.87;5.47;;;;;;;7.28;70.25;97506.63;4978877;28;20233;-70
2021/05/07 09:03:05;;;;;;;6.63;5.50;;;;;;;7.37;67.50;97499.56;4982573;28;20745;-67
2021/05/07 09:05:34;;;;;;;5.83;5.43;;;;;;;7.52;67.62;97507.75;4982806;28;20313;-71
2021/05/07 09:08:02;;;;;;;5.70;5.30;;;;;;;7.15;67.43;97512.31;4982399;28;20685;-69
2021/05/07 09:10:34;;;;;;;6.23;5.20;;;;;;;6.93;67.85;97517.06;4980900;28;20226;-71
2021/05/07 09:13:01;;;;;;;5.80;5.30;;;;;;;7.08;68.29;97513.91;4979418;28;20213;-71
2021/05/07 09:15:43;;;;;;;7.30;5.90;;;;;;;7.79;66.32;97514.66;4982367;28;20206;-69
2021/05/07 09:18:11;;;;;;;6.70;6.10;;;;;;;8.13;64.22;97512.13;4982719;28;20209;-70
2021/05/07 09:20:41;;;;;;;9.27;7.60;;;;;;;7.89;66.09;97525.06;4978091;28;20229;-71
2021/05/07 09:23:13;;;;;;;5.90;5.50;;;;;;;7.77;65.88;97519.25;4979468;28;20210;-71
2021/05/07 09:25:41;;;;;;;5.87;5.37;;;;;;;7.67;64.33;97522.00;4981507;28;20685;-71
2021/05/07 09:28:10;;;;;;;5.83;5.33;;;;;;;7.70;63.61;97539.31;4980490;28;20754;-70
2021/05/07 09:30:38;;;;;;;5.27;4.87;;;;;;;7.88;63.22;97547.16;4980328;28;20750;-76
2021/05/07 09:33:07;;;;;;;6.77;6.10;;;;;;;8.12;62.14;97529.78;4982016;28;20585;-72
2021/05/07 09:35:35;;;;;;;5.77;5.13;;;;;;;8.37;62.16;97535.16;4982074;28;20208;-71
2021/05/07 09:38:04;;;;;;;5.13;4.73;;;;;;;8.29;60.05;97543.84;4982558;28;20255;-70
2021/05/07 09:40:32;;;;;;;5.40;4.90;;;;;;;8.05;59.04;97547.25;4981012;28;20320;-70
2021/05/07 09:43:10;;;;;;;5.00;4.70;;;;;;;7.70;58.03;97557.78;4979548;28;20301;-71
2021/05/07 09:45:39;;;;;;;4.77;4.23;;;;;;;7.63;58.28;97560.22;4977762;28;20232;-71
2021/05/07 09:48:16;;;;;;;7.20;6.67;;;;;;;7.66;59.00;97564.34;4980538;28;20260;-68
2021/05/07 09:50:44;;;;;;;5.03;4.70;;;;;;;7.80;56.67;97565.59;4981917;28;20233;-70
2021/05/07 09:53:14;;;;;;;5.03;4.73;;;;;;;7.92;57.90;97563.50;4983116;28;20307;-72
2021/05/07 09:55:42;;;;;;;6.33;5.73;;;;;;;7.95;59.41;97576.38;4984353;28;20210;-72
2021/05/07 09:58:09;;;;;;;5.67;5.27;;;;;;;8.04;57.23;97580.72;4985408;28;20230;-69
2021/05/07 10:00:37;;;;;;;5.97;5.43;;;;;;;7.78;57.27;97589.50;4985329;28;21112;-70
2021/05/07 10:03:05;;;;;;;7.27;6.50;;;;;;;7.92;57.39;97588.06;4982967;28;20349;-68
2021/05/07 10:05:32;;;;;;;5.07;4.60;;;;;;;7.88;55.09;97589.38;4985911;28;20296;-70
2021/05/07 10:08:00;;;;;;;7.57;6.57;;;;;;;8.31;55.75;97594.69;4985515;28;20681;-72
2021/05/07 10:10:30;;;;;;;6.83;6.27;;;;;;;8.32;51.47;97603.41;4984764;28;20245;-70
2021/05/07 10:12:59;;;;;;;5.07;4.67;;;;;;;8.24;51.11;97601.59;4985102;28;20653;-70
2021/05/07 10:15:36;;;;;;;6.30;5.70;;;;;;;8.14;52.58;97609.63;4985818;28;20605;-72
2021/05/07 10:18:04;;;;;;;6.80;6.17;;;;;;;8.01;54.25;97610.06;4986556;28;20201;-70
2021/05/07 10:20:33;;;;;;;5.83;5.30;;;;;;;8.44;52.26;97615.38;4984379;28;20233;-70
2021/05/07 10:23:11;;;;;;;6.20;5.70;;;;;;;8.65;51.94;97600.91;4985313;28;20210;-70
2021/05/07 10:25:39;;;;;;;6.00;5.60;;;;;;;9.04;47.65;97595.03;4981936;28;20268;-68
2021/05/07 10:28:15;;;;;;;6.23;5.47;;;;;;;9.07;48.22;97605.28;4985770;28;20206;-68
2021/05/07 10:30:42;;;;;;;6.20;5.80;;;;;;;9.47;49.29;97605.47;4982262;28;20323;-71
2021/05/07 10:33:15;;;;;;;7.57;6.90;;;;;;;9.76;48.75;97614.69;4984520;28;20224;-70
2021/05/07 10:35:43;;;;;;;6.70;6.20;;;;;;;9.66;46.50;97603.44;4985212;28;20229;-68
2021/05/07 10:38:17;;;;;;;6.93;5.43;;;;;;;9.93;48.27;97619.94;4985641;28;20210;-72
2021/05/07 10:40:47;;;;;;;7.50;6.80;;;;;;;10.23;47.20;97623.69;4983687;28;20239;-68
2021/05/07 10:43:14;;;;;;;9.70;8.60;;;;;;;10.44;43.52;97608.22;4983743;28;20297;-68
2021/05/07 10:45:49;;;;;;;7.00;6.50;;;;;;;10.03;44.62;97612.63;4984751;28;20206;-70
2021/05/07 10:48:21;;;;;;;7.53;6.80;;;;;;;9.76;46.11;97613.84;4983516;28;20373;-70
2021/05/07 10:50:49;;;;;;;6.50;6.00;;;;;;;9.55;46.13;97617.88;4981181;28;20218;-69
2021/05/07 10:53:32;;;;;;;6.00;5.60;;;;;;;9.58;46.55;97628.09;4984100;28;20212;-69
2021/05/07 10:56:00;;;;;;;6.97;6.40;;;;;;;9.18;48.10;97638.50;4981296;28;20539;-69
2021/05/07 10:58:32;;;;;;;6.93;6.30;;;;;;;8.55;49.66;97643.34;4982601;28;20288;-69
2021/05/07 11:00:59;;;;;;;7.03;6.53;;;;;;;9.15;48.49;97635.38;4984684;28;20675;-69
2021/05/07 11:03:26;;;;;;;7.83;7.23;;;;;;;10.31;46.25;97633.41;4984363;28;20207;-71
2021/05/07 11:05:53;;;;;;;7.33;6.83;;;;;;;10.67;43.99;97640.09;4980667;28;20206;-71
2021/05/07 11:08:31;;;;;;;6.60;6.00;;;;;;;10.92;43.00;97638.13;4985368;28;20209;-71
2021/05/07 11:10:58;;;;;;;6.80;6.33;;;;;;;10.42;44.31;97646.31;4982036;28;20229;-71
2021/05/07 11:13:26;;;;;;;6.73;6.23;;;;;;;9.61;45.61;97650.75;4982792;28;20202;-70
2021/05/07 11:15:57;;;;;;;6.87;6.47;;;;;;;8.97;48.37;97645.09;4983517;28;20605;-72
2021/05/07 11:18:29;;;;;;;7.00;6.50;;;;;;;8.85;48.60;97656.13;4984830;28;20326;-70
2021/05/07 11:20:56;;;;;;;7.23;6.60;;;;;;;9.61;45.06;97653.38;4983124;28;20241;-71
2021/05/07 11:23:29;;;;;;;7.33;6.77;;;;;;;9.56;43.98;97667.94;4983696;28;20228;-70
2021/05/07 11:25:56;;;;;;;7.00;6.50;;;;;;;9.19;46.10;97656.00;4983667;28;20198;-70
2021/05/07 11:28:23;;;;;;;7.13;6.57;;;;;;;9.29;47.07;97679.66;4984581;28;20208;-73
2021/05/07 11:30:52;;;;;;;7.10;6.60;;;;;;;9.45;47.46;97668.28;4981700;28;20608;-70
2021/05/07 11:33:21;;;;;;;7.87;7.27;;;;;;;9.36;47.29;97670.09;4982482;28;20212;-72
2021/05/07 11:36:02;;;;;;;7.77;7.17;;;;;;;9.13;49.39;97672.53;4981196;28;20213;-73
2021/05/07 11:38:30;;;;;;;7.30;6.70;;;;;;;9.89;46.57;97679.50;4981997;28;20331;-70
2021/05/07 11:40:57;;;;;;;7.47;6.97;;;;;;;9.55;44.60;97691.94;4984956;28;20581;-71